Time;durP1;ratioP1;P1;durP2;ratioP2;P2;SDS_P1;SDS_P2;PMS_P1;PMS_P2;Temp;Humidity;BMP_temperature;BMP_pressure;BME280_temperature;BME280_humidity;BME280_pressure;Samples;Min_cycle;Max_cycle;Signal;HPM_P1;HPM_P2
2022/01/23 00:00:17;;;;;;;38.40;14.52;;;;;;;-3.32;75.75;99138.94;5034278;28;20471;-62
2022/01/23 00:02:44;;;;;;;35.70;14.32;;;;;;;-3.21;75.05;99137.84;5033140;28;20453;-63
2022/01/23 00:05:10;;;;;;;32.95;14.63;;;;;;;-3.14;75.35;99138.06;5032279;28;20709;-62
2022/01/23 00:07:38;;;;;;;40.58;15.38;;;;;;;-3.20;75.38;99144.66;5033662;28;20129;-62
2022/01/23 00:10:05;;;;;;;39.28;14.43;;;;;;;-3.16;75.27;99143.38;5016564;28;20137;-62
2022/01/23 00:12:36;;;;;;;38.28;15.50;;;;;;;-3.11;75.07;99146.31;5032384;28;20053;-62
2022/01/23 00:17:46;;;;;;;35.60;13.63;;;;;;;-2.97;75.22;99150.13;5022877;28;20034;-62
2022/01/23 00:20:12;;;;;;;34.97;14.50;;;;;;;-3.05;75.15;99156.06;5033965;28;20037;-63
2022/01/23 00:22:45;;;;;;;36.63;15.38;;;;;;;-3.03;75.45;99158.50;5031928;28;20041;-62
2022/01/23 00:30:43;;;;;;;40.33;14.40;;;;;;;-2.95;74.87;99173.28;5033836;28;20054;-63
2022/01/23 00:33:10;;;;;;;41.47;16.55;;;;;;;-2.97;75.37;99182.06;5032131;28;20061;-61
2022/01/23 00:35:39;;;;;;;28.00;13.40;;;;;;;-3.09;74.98;99174.69;5032041;28;20148;-61
2022/01/23 00:38:06;;;;;;;43.05;15.93;;;;;;;-3.12;75.52;99164.63;5031881;28;20037;-62
2022/01/23 00:40:34;;;;;;;35.58;14.68;;;;;;;-3.13;75.88;99189.72;5032249;28;20050;-62
2022/01/23 00:43:06;;;;;;;36.72;16.02;;;;;;;-3.15;75.41;99181.28;4995170;28;20045;-61
2022/01/23 00:45:33;;;;;;;38.08;15.13;;;;;;;-3.10;75.48;99176.47;5031933;28;20045;-60
2022/01/23 00:48:05;;;;;;;39.92;15.23;;;;;;;-3.06;75.88;99182.97;5033170;28;20045;-61
2022/01/23 00:50:34;;;;;;;41.92;15.48;;;;;;;-3.09;75.30;99178.09;5033661;28;20391;-61
2022/01/23 00:53:01;;;;;;;35.78;16.45;;;;;;;-3.10;75.67;99180.84;5011513;28;20127;-61
2022/01/23 00:55:27;;;;;;;35.80;15.55;;;;;;;-3.16;75.99;99194.44;5012063;28;20042;-61
2022/01/23 00:57:53;;;;;;;41.78;16.90;;;;;;;-3.19;75.64;99187.75;5019835;28;20029;-61
2022/01/23 01:00:19;;;;;;;40.65;15.75;;;;;;;-3.21;75.55;99203.50;5033205;28;20144;-61
2022/01/23 01:02:45;;;;;;;41.38;16.30;;;;;;;-3.19;76.38;99198.13;5031378;28;20033;-61
2022/01/23 01:05:11;;;;;;;37.42;15.00;;;;;;;-3.12;75.18;99201.72;5031454;28;20053;-62
2022/01/23 01:07:37;;;;;;;43.50;17.83;;;;;;;-3.16;75.02;99202.19;4995117;28;20042;-62
2022/01/23 01:10:09;;;;;;;36.90;15.82;;;;;;;-3.07;75.42;99198.69;5011744;28;20052;-61
2022/01/23 01:12:42;;;;;;;44.78;16.75;;;;;;;-3.05;75.50;99199.34;5011750;28;20042;-61
2022/01/23 01:34:11;;;;;;;36.27;16.27;;;;;;;-2.73;73.91;99226.41;5031048;28;20033;-61
2022/01/23 01:39:05;;;;;;;42.25;15.48;;;;;;;-2.85;74.21;99231.06;5014436;28;20539;-61
2022/01/23 01:41:34;;;;;;;35.53;15.70;;;;;;;-2.96;74.82;99234.72;5014744;28;20041;-61
2022/01/23 01:44:00;;;;;;;30.38;13.73;;;;;;;-3.04;75.31;99238.06;5014105;28;20056;-63
2022/01/23 01:46:55;;;;;;;33.03;14.48;;;;;;;-3.03;75.02;99239.72;5030724;28;20335;-61
2022/01/23 01:49:29;;;;;;;40.45;16.42;;;;;;;-3.03;75.37;99241.47;5030873;28;20108;-60
2022/01/23 01:51:58;;;;;;;32.83;14.52;;;;;;;-3.01;75.07;99242.97;5014144;28;20042;-62
2022/01/23 01:54:26;;;;;;;36.10;15.20;;;;;;;-3.06;75.35;99242.63;5030778;28;20069;-61
2022/01/23 01:57:05;;;;;;;33.88;14.70;;;;;;;-3.02;75.44;99256.09;5014347;28;20045;-60
2022/01/23 02:10:15;;;;;;;33.05;13.40;;;;;;;-3.05;75.21;99277.94;5013179;28;20335;-62
2022/01/23 02:15:38;;;;;;;34.25;14.10;;;;;;;-3.08;75.09;99293.81;5030648;28;20049;-61
2022/01/23 02:55:49;;;;;;;21.08;10.25;;;;;;;-3.36;75.73;99378.66;5013703;28;20264;-61
2022/01/23 02:58:21;;;;;;;32.45;12.65;;;;;;;-3.30;75.35;99374.66;5029967;28;20049;-61
2022/01/23 03:01:01;;;;;;;29.60;12.77;;;;;;;-3.42;75.56;99382.63;5029739;28;20258;-62
2022/01/23 03:03:49;;;;;;;29.77;12.73;;;;;;;-3.35;75.96;99388.06;5030027;28;20053;-60
2022/01/23 03:29:56;;;;;;;29.15;12.15;;;;;;;-3.13;74.52;99424.88;5029662;28;20041;-61
2022/01/23 03:34:55;;;;;;;29.75;12.38;;;;;;;-3.21;75.30;99436.81;5029642;28;20065;-60
2022/01/23 03:37:21;;;;;;;28.23;11.82;;;;;;;-3.29;74.84;99430.75;5029510;28;20053;-61
2022/01/23 03:39:47;;;;;;;30.35;13.23;;;;;;;-3.27;74.52;99445.16;4976885;28;20526;-62
2022/01/23 03:42:13;;;;;;;28.30;11.40;;;;;;;-3.31;74.99;99448.19;4994026;28;20205;-61
2022/01/23 03:44:44;;;;;;;31.83;12.00;;;;;;;-3.30;75.65;99461.00;5013517;28;20042;-60
2022/01/23 03:49:39;;;;;;;26.85;11.35;;;;;;;-3.30;74.73;99476.56;5017093;28;20132;-62
2022/01/23 03:52:28;;;;;;;30.25;13.02;;;;;;;-3.33;75.21;99479.44;5022161;28;20057;-60
2022/01/23 03:54:54;;;;;;;30.50;12.38;;;;;;;-3.36;75.53;99484.09;5033192;28;20053;-62
2022/01/23 03:57:20;;;;;;;32.58;14.38;;;;;;;-3.36;74.77;99481.50;5033332;28;20492;-61
2022/01/23 03:59:46;;;;;;;30.75;13.68;;;;;;;-3.34;75.15;99477.81;5016534;28;20050;-61
2022/01/23 04:02:14;;;;;;;31.95;13.45;;;;;;;-3.32;74.44;99488.06;5015775;28;20048;-62
2022/01/23 04:04:41;;;;;;;28.08;12.68;;;;;;;-3.33;73.83;99491.59;5032723;28;20076;-60
2022/01/23 04:07:15;;;;;;;29.05;12.55;;;;;;;-3.37;74.33;99485.88;4997567;28;20037;-62
2022/01/23 04:09:42;;;;;;;30.63;12.80;;;;;;;-3.33;74.07;99492.41;5013617;28;20046;-61
2022/01/23 04:12:12;;;;;;;27.92;12.70;;;;;;;-3.35;74.74;99499.53;5013802;28;20048;-61
2022/01/23 04:14:46;;;;;;;27.52;12.27;;;;;;;-3.37;75.36;99498.84;5012955;28;20100;-60
2022/01/23 04:33:56;;;;;;;25.38;10.90;;;;;;;-3.56;74.16;99549.00;5018036;28;20053;-61
2022/01/23 05:01:05;;;;;;;31.45;13.20;;;;;;;-3.43;73.79;99580.59;5031802;28;20045;-62
2022/01/23 05:06:29;;;;;;;27.60;11.93;;;;;;;-3.46;74.30;99595.63;5033175;28;20020;-63
2022/01/23 05:09:24;;;;;;;33.15;12.45;;;;;;;-3.59;74.11;99610.66;5014456;28;20495;-62
2022/01/23 05:12:12;;;;;;;24.92;11.43;;;;;;;-3.63;74.28;99617.88;5015307;28;20037;-62
2022/01/23 05:14:42;;;;;;;30.58;13.13;;;;;;;-3.64;74.31;99613.69;5030933;28;20044;-61
2022/01/23 05:17:11;;;;;;;32.38;13.57;;;;;;;-3.68;73.24;99614.91;5014922;28;20037;-61
2022/01/23 05:19:38;;;;;;;27.33;10.88;;;;;;;-3.73;73.97;99624.88;5011323;28;20508;-62
2022/01/23 05:22:21;;;;;;;24.25;11.07;;;;;;;-3.75;74.17;99632.78;5011047;28;20046;-61
2022/01/23 05:24:53;;;;;;;24.63;11.90;;;;;;;-3.80;73.56;99637.56;5006931;28;20041;-61
2022/01/23 05:27:22;;;;;;;28.08;13.65;;;;;;;-3.80;73.94;99640.13;4995633;28;20463;-61
2022/01/23 05:29:48;;;;;;;33.42;13.30;;;;;;;-3.75;73.85;99642.31;5011505;28;20052;-62
2022/01/23 05:32:14;;;;;;;29.33;13.07;;;;;;;-3.73;73.87;99638.66;5014368;28;20038;-62
2022/01/23 05:34:41;;;;;;;25.92;11.93;;;;;;;-3.70;73.62;99640.16;5030940;28;20057;-61
2022/01/23 05:37:19;;;;;;;33.33;13.60;;;;;;;-3.72;73.46;99644.63;5031023;28;20144;-61
2022/01/23 05:39:47;;;;;;;29.65;12.93;;;;;;;-3.76;73.85;99654.47;5031192;28;20042;-61
2022/01/23 05:42:13;;;;;;;30.55;14.07;;;;;;;-3.73;73.84;99656.78;5030861;28;20434;-60
2022/01/23 05:44:41;;;;;;;34.03;13.35;;;;;;;-3.78;74.04;99658.97;5030644;28;20045;-62
2022/01/23 05:47:10;;;;;;;35.30;14.45;;;;;;;-3.83;73.66;99666.31;5030818;28;20045;-62
2022/01/23 05:49:56;;;;;;;26.02;11.70;;;;;;;-3.90;74.00;99683.38;5017368;28;20042;-62
2022/01/23 05:52:35;;;;;;;29.52;13.45;;;;;;;-3.91;74.18;99687.75;5031965;28;21230;-63
2022/01/23 05:55:21;;;;;;;21.23;9.52;;;;;;;-4.05;73.46;99682.97;5030494;28;20411;-61
2022/01/23 05:57:58;;;;;;;25.38;10.88;;;;;;;-4.07;74.50;99691.81;5015403;28;20045;-62
2022/01/23 06:00:31;;;;;;;28.73;11.32;;;;;;;-4.03;74.40;99690.59;5030896;28;20049;-61
2022/01/23 06:03:03;;;;;;;27.70;12.85;;;;;;;-4.00;74.26;99700.66;5013558;28;20410;-62
2022/01/23 06:05:36;;;;;;;30.33;12.80;;;;;;;-3.93;74.04;99694.81;5030241;28;20430;-60
2022/01/23 06:08:06;;;;;;;27.88;12.85;;;;;;;-3.88;74.19;99704.78;5014644;28;20053;-61
2022/01/23 06:10:46;;;;;;;32.55;11.90;;;;;;;-3.87;73.08;99711.59;5032104;28;20041;-63
2022/01/23 06:13:12;;;;;;;23.73;11.10;;;;;;;-3.81;73.27;99716.22;5010204;28;20122;-62
2022/01/23 06:15:38;;;;;;;24.05;11.15;;;;;;;-3.80;73.73;99717.03;5010703;28;20045;-61
2022/01/23 06:18:03;;;;;;;25.55;12.27;;;;;;;-3.74;73.12;99719.06;5029819;28;20127;-62
2022/01/23 06:20:48;;;;;;;25.90;11.73;;;;;;;-3.68;73.51;99715.94;5029952;28;20517;-63
2022/01/23 06:23:36;;;;;;;30.13;12.20;;;;;;;-3.65;72.75;99720.84;4997240;28;20057;-62
2022/01/23 06:26:13;;;;;;;29.25;12.60;;;;;;;-3.54;73.07;99727.66;4983849;28;20091;-61
2022/01/23 06:28:55;;;;;;;28.73;11.15;;;;;;;-3.67;72.55;99736.53;4963654;28;20509;-63
2022/01/23 06:31:21;;;;;;;26.55;10.98;;;;;;;-3.66;72.94;99732.16;4992576;28;20042;-62
2022/01/23 06:33:47;;;;;;;30.38;12.57;;;;;;;-3.72;73.03;99737.91;5008679;28;20569;-62
2022/01/23 06:36:14;;;;;;;25.85;11.95;;;;;;;-3.72;73.34;99743.91;5007388;28;20619;-61
2022/01/23 06:38:42;;;;;;;29.27;13.00;;;;;;;-3.75;72.51;99746.75;4956867;28;20141;-61
2022/01/23 06:41:08;;;;;;;30.45;12.70;;;;;;;-3.82;73.75;99745.69;4975027;28;20057;-62
2022/01/23 06:43:46;;;;;;;30.08;13.93;;;;;;;-3.84;73.48;99749.34;4960936;28;20532;-63
2022/01/23 06:46:18;;;;;;;33.97;14.35;;;;;;;-3.82;73.22;99758.63;4973405;28;20061;-62
2022/01/23 06:48:43;;;;;;;29.08;12.85;;;;;;;-3.76;73.37;99765.03;4984585;28;20054;-63
2022/01/23 06:51:09;;;;;;;28.30;12.48;;;;;;;-3.72;72.58;99764.63;4981503;28;20070;-62
2022/01/23 06:53:35;;;;;;;34.10;13.15;;;;;;;-3.65;73.16;99772.66;4958967;28;20042;-63
2022/01/23 06:56:01;;;;;;;33.15;13.82;;;;;;;-3.53;72.22;99771.59;5028386;28;20411;-61
2022/01/23 06:58:27;;;;;;;27.60;12.98;;;;;;;-3.54;71.68;99772.53;5013034;28;20049;-62
2022/01/23 07:00:53;;;;;;;26.83;12.55;;;;;;;-3.61;71.86;99778.41;5029675;28;20038;-61
2022/01/23 07:03:45;;;;;;;32.65;12.88;;;;;;;-3.58;71.40;99791.91;5031309;28;20499;-63
2022/01/23 07:06:38;;;;;;;27.52;11.82;;;;;;;-3.58;71.74;99791.09;5030840;28;20415;-61
2022/01/23 07:09:24;;;;;;;31.88;12.70;;;;;;;-3.57;71.66;99787.53;5039288;28;20058;-62
2022/01/23 07:12:09;;;;;;;51.75;21.92;;;;;;;-3.47;71.61;99793.53;5030786;28;20529;-61
2022/01/23 07:14:53;;;;;;;29.67;12.90;;;;;;;-3.44;71.44;99788.09;5030635;28;20057;-58
2022/01/23 07:17:41;;;;;;;27.88;12.85;;;;;;;-3.40;72.07;99786.84;5030578;28;20041;-59
2022/01/23 07:20:20;;;;;;;29.67;11.60;;;;;;;-3.30;70.56;99799.78;5003901;28;20137;-59
2022/01/23 07:22:47;;;;;;;33.83;13.75;;;;;;;-3.35;71.58;99802.81;5033605;28;20046;-63
2022/01/23 07:25:13;;;;;;;27.83;13.10;;;;;;;-3.36;71.03;99805.53;5016802;28;20051;-62
2022/01/23 07:27:52;;;;;;;30.60;12.32;;;;;;;-3.32;70.66;99815.50;5016001;28;20785;-62
2022/01/23 07:32:56;;;;;;;29.10;13.27;;;;;;;-3.12;70.97;99834.44;5003683;28;20045;-62
2022/01/23 07:35:22;;;;;;;28.48;12.93;;;;;;;-3.06;70.36;99836.50;4996133;28;20050;-60
2022/01/23 07:37:48;;;;;;;31.50;12.95;;;;;;;-3.13;70.15;99832.81;5032631;28;20044;-62
2022/01/23 07:40:32;;;;;;;29.98;13.10;;;;;;;-3.06;69.76;99841.69;5018679;28;20053;-64
2022/01/23 07:42:58;;;;;;;32.40;14.27;;;;;;;-3.07;70.09;99840.03;5033010;28;20041;-62
2022/01/23 07:45:43;;;;;;;31.60;14.40;;;;;;;-3.10;69.53;99844.69;5018798;28;20179;-61
2022/01/23 07:48:27;;;;;;;26.52;11.68;;;;;;;-3.09;69.43;99856.69;5013562;28;20045;-63
2022/01/23 07:51:00;;;;;;;26.95;12.20;;;;;;;-3.05;69.66;99851.09;5017614;28;20146;-62
2022/01/23 07:53:37;;;;;;;31.38;13.18;;;;;;;-2.95;70.41;99860.63;5000450;28;20136;-61
2022/01/23 07:56:26;;;;;;;31.23;13.10;;;;;;;-2.85;70.45;99867.44;4989807;28;20077;-64
2022/01/23 07:59:13;;;;;;;33.20;14.43;;;;;;;-2.77;69.28;99866.75;5032958;28;20060;-62
2022/01/23 08:01:41;;;;;;;32.78;14.02;;;;;;;-2.68;69.65;99875.47;5024829;28;20041;-64
2022/01/23 08:04:33;;;;;;;30.25;13.82;;;;;;;-2.62;68.94;99878.34;5014906;28;20061;-62
2022/01/23 08:07:20;;;;;;;31.75;13.55;;;;;;;-2.61;69.04;99881.75;5012392;28;20050;-60
2022/01/23 08:09:49;;;;;;;26.85;12.13;;;;;;;-2.64;68.06;99889.81;5030108;28;20582;-61
2022/01/23 08:12:17;;;;;;;32.17;14.38;;;;;;;-2.61;69.13;99886.94;5033482;28;20125;-62
2022/01/23 08:14:42;;;;;;;33.90;13.30;;;;;;;-2.62;68.58;99899.09;5015884;28;20045;-62
2022/01/23 08:17:08;;;;;;;34.08;13.77;;;;;;;-2.54;68.63;99900.97;5035075;28;20037;-65
2022/01/23 08:19:34;;;;;;;35.40;15.75;;;;;;;-2.47;68.34;99909.88;5028163;28;20040;-64
2022/01/23 08:22:00;;;;;;;32.67;14.30;;;;;;;-2.45;68.50;99918.31;5002645;28;20170;-65
2022/01/23 08:24:26;;;;;;;34.53;13.48;;;;;;;-2.48;68.10;99910.81;5035684;28;20041;-64
2022/01/23 08:26:52;;;;;;;32.65;13.95;;;;;;;-2.31;67.33;99909.25;5035258;28;20088;-62
2022/01/23 08:29:18;;;;;;;32.92;14.25;;;;;;;-2.30;67.48;99916.06;5018551;28;20041;-61
2022/01/23 08:31:45;;;;;;;33.92;14.60;;;;;;;-2.17;67.56;99924.38;5037818;28;20084;-63
2022/01/23 08:34:12;;;;;;;39.60;15.27;;;;;;;-2.08;67.80;99930.50;5032698;28;20045;-59
2022/01/23 08:36:38;;;;;;;41.42;16.38;;;;;;;-1.98;66.80;99941.66;5033331;28;20113;-60
2022/01/23 08:39:04;;;;;;;41.13;17.23;;;;;;;-2.02;66.53;99948.13;5012688;28;20037;-61
2022/01/23 08:44:14;;;;;;;34.67;15.52;;;;;;;-2.12;67.16;99948.16;5031887;28;20407;-58
2022/01/23 08:46:40;;;;;;;36.10;15.80;;;;;;;-2.08;67.09;99953.88;5031522;28;20049;-58
2022/01/23 08:49:07;;;;;;;33.00;15.27;;;;;;;-2.09;68.19;99950.47;5015593;28;20042;-56
2022/01/23 08:51:33;;;;;;;34.15;15.45;;;;;;;-1.96;66.67;99962.31;5033197;28;20045;-60
2022/01/23 08:53:59;;;;;;;37.22;16.27;;;;;;;-1.90;67.63;99967.75;5031712;28;20415;-59
2022/01/23 08:56:26;;;;;;;34.97;16.20;;;;;;;-1.86;66.47;99976.09;5015203;28;20061;-60
2022/01/23 08:58:52;;;;;;;37.03;15.98;;;;;;;-1.94;66.08;99981.16;5032828;28;20455;-63
2022/01/23 09:01:17;;;;;;;34.95;16.05;;;;;;;-1.94;68.27;99968.19;5050045;28;20139;-61
2022/01/23 09:03:44;;;;;;;34.95;15.45;;;;;;;-1.88;67.69;99973.66;5053023;28;20041;-61
2022/01/23 09:06:10;;;;;;;38.75;14.70;;;;;;;-1.66;66.44;99976.84;5053221;28;20098;-59
2022/01/23 09:08:38;;;;;;;34.70;14.98;;;;;;;-1.78;65.04;99986.59;5051715;28;20052;-59
2022/01/23 09:11:24;;;;;;;33.95;15.60;;;;;;;-1.73;65.51;99997.38;5018975;28;20060;-60
2022/01/23 09:13:55;;;;;;;40.47;15.23;;;;;;;-1.93;66.65;100004.44;5034767;28;20509;-61
2022/01/23 09:16:20;;;;;;;;;;;;;;;-1.73;66.34;100006.97;5051837;28;20063;-60
2022/01/23 09:18:46;;;;;;;31.08;12.80;;;;;;;-1.86;65.87;100009.88;5052725;28;20444;-60
2022/01/23 09:21:12;;;;;;;33.38;14.00;;;;;;;-1.91;66.57;100001.66;5053017;28;20078;-62
2022/01/23 09:23:38;;;;;;;37.33;15.23;;;;;;;-1.88;66.83;100012.63;5050742;28;20037;-60
2022/01/23 09:26:09;;;;;;;33.80;14.45;;;;;;;-1.81;66.38;100009.47;5052795;28;20048;-60
2022/01/23 09:28:40;;;;;;;36.38;15.05;;;;;;;-1.84;66.47;100010.56;5052313;28;20413;-57
2022/01/23 09:31:07;;;;;;;33.90;14.57;;;;;;;-1.84;66.08;100013.16;5018166;28;20033;-60
2022/01/23 09:33:33;;;;;;;34.67;14.18;;;;;;;-1.84;65.88;100010.56;5021589;28;20064;-64
2022/01/23 09:35:58;;;;;;;36.63;15.13;;;;;;;-1.98;66.16;100016.19;5031777;28;20403;-62
2022/01/23 09:38:24;;;;;;;37.22;15.30;;;;;;;-1.95;66.85;100015.91;5030650;28;20041;-62
2022/01/23 09:40:53;;;;;;;34.95;15.40;;;;;;;-1.93;66.42;100019.22;5030227;28;20064;-60
2022/01/23 09:43:20;;;;;;;28.90;14.30;;;;;;;-1.90;67.37;100024.13;5030507;28;20490;-60
2022/01/23 09:45:49;;;;;;;34.65;15.38;;;;;;;-1.96;66.43;100032.47;5030734;28;20613;-62
2022/01/23 09:48:16;;;;;;;31.95;15.82;;;;;;;-1.88;65.82;100028.22;5029885;28;20037;-61
2022/01/23 09:50:42;;;;;;;33.92;15.55;;;;;;;-1.98;66.01;100019.63;5031546;28;20103;-61
2022/01/23 09:53:08;;;;;;;32.10;13.52;;;;;;;-2.02;65.99;100030.44;5013866;28;20033;-61
2022/01/23 09:55:35;;;;;;;30.08;14.05;;;;;;;-2.11;66.21;100022.53;5030576;28;20045;-64
2022/01/23 09:58:01;;;;;;;33.63;14.35;;;;;;;-2.07;66.73;100036.84;5031459;28;20399;-61
2022/01/23 10:00:31;;;;;;;32.42;14.73;;;;;;;-1.81;67.14;100031.06;5031857;28;20050;-63
2022/01/23 10:02:57;;;;;;;37.88;16.52;;;;;;;-1.58;65.57;100047.13;5030940;28;20034;-63
2022/01/23 10:05:23;;;;;;;35.33;16.13;;;;;;;-1.71;65.25;100050.03;5041438;28;20045;-60
2022/01/23 10:07:49;;;;;;;33.88;14.68;;;;;;;-1.83;65.50;100051.97;5049117;28;20044;-61
2022/01/23 10:10:24;;;;;;;28.35;12.90;;;;;;;-1.92;65.53;100055.44;5051466;28;20041;-62
2022/01/23 10:12:57;;;;;;;33.20;14.27;;;;;;;-1.88;65.70;100063.78;5049701;28;20047;-61
2022/01/23 10:15:25;;;;;;;32.88;15.02;;;;;;;-1.94;65.51;100066.91;5036167;28;20044;-58
2022/01/23 10:17:52;;;;;;;34.90;15.45;;;;;;;-2.00;66.24;100062.28;5033007;28;20494;-59
2022/01/23 10:20:49;;;;;;;33.88;14.23;;;;;;;-1.93;66.74;100065.97;5049698;28;20051;-57
2022/01/23 10:23:23;;;;;;;35.65;14.65;;;;;;;-1.83;66.22;100064.16;4986163;28;20392;-59
2022/01/23 10:25:51;;;;;;;34.72;14.57;;;;;;;-1.65;66.77;100072.03;5040816;28;20174;-60
2022/01/23 10:28:21;;;;;;;32.00;14.23;;;;;;;-1.44;65.56;100069.22;5050914;28;20033;-59
2022/01/23 10:30:56;;;;;;;31.42;15.07;;;;;;;-1.41;64.09;100069.78;5051321;28;20044;-60
2022/01/23 10:33:24;;;;;;;29.27;13.55;;;;;;;-1.60;64.23;100077.66;5048290;28;20045;-59
2022/01/23 10:36:10;;;;;;;31.48;14.23;;;;;;;-1.73;64.94;100075.38;5050572;28;20056;-60
2022/01/23 10:38:58;;;;;;;30.88;14.02;;;;;;;-1.73;64.95;100088.38;5010903;28;20125;-60
2022/01/23 10:41:48;;;;;;;30.02;13.55;;;;;;;-1.88;64.91;100082.78;5010509;28;20502;-60
2022/01/23 10:50:01;;;;;;;35.08;14.77;;;;;;;-1.76;65.55;100104.25;5010855;28;20371;-62
2022/01/23 10:52:32;;;;;;;31.48;14.00;;;;;;;-1.88;65.77;100095.78;5032827;28;20045;-59
2022/01/23 10:55:10;;;;;;;39.28;15.40;;;;;;;-1.89;65.46;100101.91;5014992;28;20495;-60
2022/01/23 10:57:44;;;;;;;27.38;13.25;;;;;;;-1.81;65.17;100103.84;5014931;28;20149;-61
2022/01/23 11:00:21;;;;;;;32.78;14.15;;;;;;;-1.79;65.04;100116.66;5013693;28;20038;-60
2022/01/23 11:02:47;;;;;;;31.00;14.45;;;;;;;-2.10;65.67;100112.47;5014484;28;20038;-61
2022/01/23 11:05:15;;;;;;;34.80;14.02;;;;;;;-2.05;65.62;100114.66;5015066;28;20574;-60
2022/01/23 11:07:44;;;;;;;32.17;13.43;;;;;;;-1.99;65.44;100115.91;5029745;28;20041;-60
2022/01/23 11:10:14;;;;;;;31.55;14.30;;;;;;;-1.93;65.67;100121.34;5034285;28;20041;-59
2022/01/23 11:18:03;;;;;;;33.03;13.95;;;;;;;-1.67;65.67;100134.59;5034044;28;20056;-60
2022/01/23 11:20:30;;;;;;;33.58;16.38;;;;;;;-1.68;65.41;100137.31;5033468;28;20049;-61
2022/01/23 11:23:10;;;;;;;35.88;14.73;;;;;;;-1.76;65.91;100138.03;5034461;28;20577;-61
2022/01/23 11:25:35;;;;;;;42.67;17.95;;;;;;;-1.62;66.37;100141.94;5034324;28;20049;-62
2022/01/23 11:28:05;;;;;;;40.30;14.98;;;;;;;-1.58;65.66;100139.91;5033509;28;20092;-61
2022/01/23 11:30:39;;;;;;;42.17;16.48;;;;;;;-1.66;65.41;100146.63;4987140;28;20262;-60
2022/01/23 11:33:07;;;;;;;35.22;15.60;;;;;;;-1.64;65.53;100141.28;4997316;28;20057;-61
2022/01/23 11:35:33;;;;;;;37.22;16.92;;;;;;;-1.59;65.27;100141.66;5038575;28;20064;-61
2022/01/23 11:37:59;;;;;;;36.58;17.05;;;;;;;-1.63;65.59;100148.94;5034436;28;20049;-61
2022/01/23 11:53:58;;;;;;;33.55;14.27;;;;;;;-1.79;65.39;100163.44;5044830;28;20072;-62
2022/01/23 11:56:24;;;;;;;34.38;14.85;;;;;;;-1.86;65.73;100179.59;5018943;28;20040;-61
2022/01/23 11:58:55;;;;;;;42.85;14.75;;;;;;;-1.99;66.06;100178.25;5038583;28;20048;-61
2022/01/23 12:01:24;;;;;;;;;;;;;;;-2.03;66.43;100176.88;5046803;28;20033;-62
2022/01/23 12:04:21;;;;;;;34.42;14.73;;;;;;;-1.83;66.39;100178.50;5049881;28;19921;-61
2022/01/23 12:07:08;;;;;;;37.47;14.27;;;;;;;-1.84;66.02;100189.88;5040482;28;20425;-61
2022/01/23 12:09:34;;;;;;;32.95;13.88;;;;;;;-1.90;66.00;100185.22;5053052;28;20045;-61
2022/01/23 12:12:04;;;;;;;36.38;14.88;;;;;;;-1.84;66.50;100189.88;5052160;28;20040;-62
2022/01/23 12:17:09;;;;;;;34.53;14.70;;;;;;;-1.89;66.22;100189.44;5035088;28;20037;-62
2022/01/23 12:19:47;;;;;;;29.70;13.60;;;;;;;-1.90;66.16;100193.03;5024888;28;20034;-61
2022/01/23 12:22:22;;;;;;;28.80;13.43;;;;;;;-2.08;66.22;100188.50;4996444;28;20132;-62
2022/01/23 12:24:49;;;;;;;34.83;14.45;;;;;;;-2.22;67.12;100190.69;4997586;28;20099;-61
2022/01/23 12:27:29;;;;;;;35.67;14.23;;;;;;;-2.14;68.08;100193.44;5034017;28;20400;-61
2022/01/23 12:29:57;;;;;;;40.00;15.07;;;;;;;-2.10;68.35;100199.97;5053898;28;20045;-63
2022/01/23 12:32:29;;;;;;;30.95;14.05;;;;;;;-2.14;66.76;100202.03;5052083;28;20517;-62
2022/01/23 12:35:00;;;;;;;30.73;14.02;;;;;;;-2.20;67.33;100202.59;5035367;28;20065;-62
2022/01/23 12:37:27;;;;;;;36.33;15.65;;;;;;;-2.32;67.57;100217.47;5052281;28;20045;-61
2022/01/23 12:40:28;;;;;;;31.63;14.52;;;;;;;-2.18;67.77;100213.63;5033783;28;20577;-61
2022/01/23 12:43:15;;;;;;;31.80;14.18;;;;;;;-2.31;67.99;100220.88;5042553;28;20099;-62
2022/01/23 12:46:05;;;;;;;32.40;14.77;;;;;;;-2.45;68.22;100221.25;5033710;28;20071;-62
2022/01/23 12:48:34;;;;;;;33.00;13.83;;;;;;;-2.66;68.81;100227.34;5043322;28;20143;-61
2022/01/23 12:51:06;;;;;;;38.25;14.90;;;;;;;-2.83;68.61;100227.94;5051642;28;20349;-61
2022/01/23 12:53:54;;;;;;;34.83;14.63;;;;;;;-2.88;68.92;100237.88;5051661;28;20036;-61
2022/01/23 12:56:29;;;;;;;41.03;15.40;;;;;;;-3.11;69.78;100234.66;5052851;28;20049;-61
2022/01/23 12:59:05;;;;;;;41.30;14.38;;;;;;;-3.10;70.26;100239.69;5051862;28;20454;-63
2022/01/23 13:01:32;;;;;;;31.10;14.20;;;;;;;-3.17;70.51;100250.72;5051584;28;20044;-62
2022/01/23 13:04:00;;;;;;;32.22;13.73;;;;;;;-3.23;70.91;100252.06;5034988;28;20044;-61
2022/01/23 13:06:53;;;;;;;41.03;14.73;;;;;;;-3.26;70.95;100257.50;5052680;28;20520;-62
2022/01/23 13:15:14;;;;;;;36.22;15.50;;;;;;;-3.11;70.24;100265.78;5042959;28;20046;-62
2022/01/23 13:31:53;;;;;;;35.60;13.57;;;;;;;-3.08;70.15;100273.31;5032388;28;20045;-64
2022/01/23 13:34:25;;;;;;;31.63;13.52;;;;;;;-3.18;70.16;100268.03;5032547;28;20124;-62
2022/01/23 13:37:13;;;;;;;36.90;14.00;;;;;;;-3.25;70.59;100265.13;5035624;28;20399;-63
2022/01/23 13:39:50;;;;;;;33.38;14.30;;;;;;;-3.30;70.94;100269.88;5050946;28;20045;-64
2022/01/23 13:59:31;;;;;;;36.72;15.25;;;;;;;-3.46;71.20;100332.53;5031584;28;20495;-60
2022/01/23 14:04:34;;;;;;;33.00;14.13;;;;;;;-3.36;71.29;100340.38;5046968;28;20052;-63
2022/01/23 14:07:00;;;;;;;36.25;14.40;;;;;;;-3.20;71.56;100345.16;5047916;28;20044;-63
2022/01/23 14:09:26;;;;;;;39.22;16.38;;;;;;;-3.12;72.01;100350.53;5048525;28;20292;-63
2022/01/23 14:11:52;;;;;;;40.42;15.23;;;;;;;-3.20;70.56;100348.56;5049369;28;20048;-61
2022/01/23 14:14:24;;;;;;;32.53;13.25;;;;;;;-3.22;70.16;100370.38;5049246;28;20390;-62
2022/01/23 14:16:52;;;;;;;31.90;14.52;;;;;;;-3.16;70.67;100372.47;5047727;28;20372;-61
2022/01/23 14:19:29;;;;;;;34.55;14.80;;;;;;;-3.13;70.94;100381.78;5030752;28;20050;-62
2022/01/23 14:21:57;;;;;;;34.15;14.23;;;;;;;-3.01;70.55;100388.56;5030650;28;20036;-61
2022/01/23 14:24:24;;;;;;;30.23;14.10;;;;;;;-2.87;70.12;100388.25;5047084;28;20041;-61
2022/01/23 14:27:06;;;;;;;33.00;13.32;;;;;;;-2.99;69.66;100384.09;5048753;28;20041;-61
2022/01/23 14:29:35;;;;;;;34.08;13.90;;;;;;;-3.14;69.98;100386.16;5045414;28;20422;-62
2022/01/23 14:32:07;;;;;;;31.20;13.23;;;;;;;-3.12;69.57;100392.03;5036842;28;20037;-61
2022/01/23 14:34:34;;;;;;;30.23;12.32;;;;;;;-3.27;70.02;100396.69;5025619;28;20065;-59
2022/01/23 14:37:03;;;;;;;35.75;13.80;;;;;;;-3.26;69.98;100400.13;5026716;28;20053;-61
2022/01/23 14:39:29;;;;;;;28.50;12.68;;;;;;;-3.24;70.56;100411.16;5027719;28;20049;-61
2022/01/23 14:41:55;;;;;;;34.53;14.32;;;;;;;-3.18;70.98;100417.63;5025367;28;20095;-60
2022/01/23 14:44:24;;;;;;;31.27;13.13;;;;;;;-3.22;70.15;100412.69;5031194;28;20049;-64
2022/01/23 14:46:53;;;;;;;29.40;12.50;;;;;;;-3.21;70.77;100426.47;5035901;28;20049;-62
2022/01/23 14:49:24;;;;;;;32.53;13.27;;;;;;;-3.17;70.15;100421.91;5024111;28;20042;-61
2022/01/23 14:51:51;;;;;;;34.22;14.48;;;;;;;-3.16;70.51;100426.13;5040279;28;20098;-62
2022/01/23 14:54:18;;;;;;;40.95;15.00;;;;;;;-3.20;70.32;100428.97;5034579;28;20044;-59
2022/01/23 14:56:44;;;;;;;35.10;14.18;;;;;;;-3.21;70.05;100435.09;5012122;28;20104;-62
2022/01/23 14:59:10;;;;;;;35.28;14.60;;;;;;;-3.26;71.01;100432.06;5025693;28;20045;-62
2022/01/23 15:01:37;;;;;;;34.30;14.38;;;;;;;-3.11;71.07;100442.16;5026081;28;20053;-60
2022/01/23 15:04:08;;;;;;;35.13;13.52;;;;;;;-3.12;69.68;100446.47;5024689;28;20041;-61
2022/01/23 15:06:36;;;;;;;32.78;13.60;;;;;;;-3.14;70.19;100447.59;5046366;28;20052;-60
2022/01/23 15:09:13;;;;;;;33.08;14.35;;;;;;;-3.16;69.86;100449.47;5046780;28;20483;-57
2022/01/23 15:11:39;;;;;;;28.52;13.02;;;;;;;-3.15;69.90;100454.50;5047778;28;20498;-55
2022/01/23 15:14:06;;;;;;;29.55;13.30;;;;;;;-3.15;69.99;100459.69;5034869;28;20045;-60
2022/01/23 15:16:32;;;;;;;30.15;13.38;;;;;;;-3.21;69.80;100473.16;5026540;28;20045;-62
2022/01/23 15:18:58;;;;;;;30.38;12.73;;;;;;;-3.09;70.83;100472.22;5009688;28;20037;-60